Portada
METAR-TAF:

METAR-TAF

Aeroports :

Remada, Tunísia

latitud: 32-19N, longitud: 010-24E, altitud: 300 m

Observació

L'informe es va fer fa 17 minuts, a les 10:00 UTC
Vent 8 kt del Est, variant entre Nord/Nord-Est i Sud-Est
Temperatura 26°C
Humitat 34%
Pressió 1022 hPa
Visibilitat 10 km o més
sense núvols per sota de 1500 mi sense presència de cumulonimbus.

METAR: DTTD 261000Z 08008KT 020V140 CAVOK 26/09 Q1022

Hora: 11:17 (10:17 UTC)


TAF: manca

Observacions i pronòstics meteorològics de més de 4000 aeroports (METAR i TAF).

Les estacions disponibles són els punts grocs i vermells al mapa.

Posi el ratolí al punt desitjat per veure el nom de l'estació.

Feu clic per veure les observacions i els pronòstics meteorològics.

Per canviar el mapa: feu clic els botons verds amb una creu de color negre per apropar; al botó verd amb un guió per allunyar la imatge; o en les fletxes verdes per a mapes adjacents.


METAR-TAF: